Blackfoot, ID (83221)

4:24 AM MDT on September 24, 2017 (GMT -0600)
Bergeson Dr | | Change Station
Active Advisory: Frost Advisory

Elev 4498 ft 43.22 °N, 112.34 °W | Updated 36 seconds ago

Partly Cloudy
Partly Cloudy
35.4 °F
Feels Like 35 °F
N
0.0
Wind Variable Wind from ESE

Today
High -- | Low -- °F
--% Chance of Precip.
Yesterday
High -- | Low -- °F
Precip. -- in
Pressure 29.98 in
Visibility 10.0 miles
Clouds Clear
Windchill 35 °F
Dew Point 32 °F
Humidity 88%
Rainfall 0.00 in
Snow Depth Not available.
7:19 AM 7:22 PM
Waxing Crescent, 18% visible
METAR KPIH 240953Z AUTO 00000KT 10SM CLR 03/01 A3000 RMK AO2 SLP151 T00280006
Pressure 29.98 in
Visibility 10.0 miles
Clouds Clear
Windchill 35 °F
Dew Point 32 °F
Humidity 88%
Rainfall 0.00 in
Snow Depth Not available.
7:19 AM 7:22 PM
Waxing Crescent, 18% visible
METAR KPIH 240953Z AUTO 00000KT 10SM CLR 03/01 A3000 RMK AO2 SLP151 T00280006

Get Your Daily Forecast Email!

Thanks for signing up!

Be on the lookout for a verification email in your inbox.

You'll start receiving severe weather alerts in your inbox..

×

10-Day Weather Forecast

Almanac

Astronomy

Sep. 24, 2017 Rise Set
Actual Time
Civil Twilight
Nautical Twilight
Astronomical Twilight
Moon
Length of Visible Light
Length of Day
Tomorrow will be .
, % of the Moon is Illuminated

Today's Extremes

State Highs State Lows

Community

WunderPhotos

Category 6

Welcome to Category 6. This is the collective home for Weather Underground's featured writeups by Dr. Jeff Masters (right), Bob Henson (left), Chris Burt, and other regular contributors.

Nearby

Air Quality

  Air Quality AQ Index Pollutant
Not available.

Snow Depth

Station Depth Elevation

Earthquake Activity

City Distance Mag. Time & Date
Minimum magnitude displayed is 2.5.

Coastal Water Temperatures

Place Temperature

Stations

Nearby Weather Stations

Station Location Temp. Windchill Dew Point Humidity Wind Precip. Elev Updated Type
                   

Watches & Warnings

Frost Advisory
Issued: 3:31 AM MDT Sep. 24, 2017 – National Weather Service

... Frost advisory remains in effect until 9 am MDT this morning...

* temperatures... falling to 32 to 36 degrees by sunrise.

* Impacts... sensitive vegetation, if left outdoors or uncovered,
may freeze.

Precautionary/preparedness actions...

A frost advisory means that widespread frost is expected.
Sensitive outdoor plants may be killed if left uncovered.





331 am MDT sun Sep 24 2017

... Frost advisory remains in effect until 9 am MDT this morning...

* temperatures... falling to 32 to 36 degrees by sunrise.

* Impacts... sensitive vegetation, if left outdoors or uncovered,
may freeze.

Precautionary/preparedness actions...

A frost advisory means that widespread frost is expected.
Sensitive outdoor plants may be killed if left uncovered.